Terminal Aerodrome Forecast
Issued by NWS Central Illinois

Home | Current Version | Previous Version | Text Only | Print | Product List | Glossary On
Versions: 1 2 3 4 5 6 7 8 9 10 11 12 13 14 15 16 17 18 19
607
FTUS43 KILX 271124
TAFSPI
TAF
KSPI 271124Z 2712/2812 16012KT P6SM -RA SCT025 OVC090
     FM271700 17014G22KT P6SM VCTS OVC035CB
     FM280100 18012KT P6SM -RA VCTS OVC025CB=

USA.gov is the U.S. government's official web portal to all federal, state and local government web resources and services.